Terminal Aerodrome Forecast
Issued by NWS

Home | Current Version | Previous Version | Text Only | Print | Product List | Glossary On
Versions: 1 2 3 4 5 6 7 8 9 10 11 12 13 14 15 16 17 18 19 20 21 22 23 24 25 26 27 28 29 30 31 32 33
000
FTUS43 KDMX 250958 AAA
TAFFOD
TAF AMD
KFOD 250958Z 2510/2606 35006KT P6SM SCT006 OVC013
     FM251130 35014KT 2SM -SN BR BKN005 OVC010
     FM251400 01015KT 4SM -SN BR OVC016
     FM251800 02015KT P6SM SCT015 BKN025
     FM252000 02010KT P6SM SCT025 BKN080=

USA.gov is the U.S. government's official web portal to all federal, state and local government web resources and services.